Weather at Alfredo Noa Díaz Airport

Public forecast

Using degrees Celsius for public forecast. Weather courtesy of forecast.io.

Closest aviation weather report (METAR) to Alfredo Noa Díaz Airport

Closest report is Leeward Point Field, 63.0 nm (116.7 km) WSW.

2024/05/25 03:51 (retrieved 20 minutes ago)

MUGM 250351Z 32005KT 10SM FEW030 FEW060 26/23 A2995 5- JCCSLP141 T02610228

Closest aviation forecast (TAF) to Alfredo Noa Díaz Airport

Forecast is more than 12 hours old.

Closest forecast is Leeward Point Field, 63.0 nm (116.7 km) WSW.

2024/05/23 08:22 Ammendment (retrieved 2 days ago)

TAF AMD MUGM 2308/2407 33006KT 9999 SCT025 QNH2990INS FM231400 11009KT 9999 VCSH FEW030 SCT060 BKN120 QNH2989INS TEMPO 2315/2321 4800 SHRA VCTS BKN025CB BKN060 BKN120 FM232200 VRB06KT 9999 VCTS SCT030CB SCT060 BKN120 QNH2988INS TX29/2318Z TN23/2310Z AMD 0804 FN00273